sensor_id;sensor_type;location;lat;lon;timestamp;temperature;humidity
41168;DHT22;26906;45.658;9.272;2023-07-13T05:34:40;25.50;99.90
41168;DHT22;26906;45.658;9.272;2023-07-13T05:37:05;25.90;99.90
41168;DHT22;26906;45.658;9.272;2023-07-13T05:39:31;26.20;99.90
41168;DHT22;26906;45.658;9.272;2023-07-13T05:41:57;26.40;99.90
41168;DHT22;26906;45.658;9.272;2023-07-13T05:44:22;26.50;99.90
41168;DHT22;26906;45.658;9.272;2023-07-13T05:46:48;26.30;99.90
41168;DHT22;26906;45.658;9.272;2023-07-13T05:49:14;26.30;99.90
41168;DHT22;26906;45.658;9.272;2023-07-13T05:51:39;26.30;99.90
41168;DHT22;26906;45.658;9.272;2023-07-13T05:54:05;26.40;99.90
41168;DHT22;26906;45.658;9.272;2023-07-13T05:56:31;26.60;99.90
41168;DHT22;26906;45.658;9.272;2023-07-13T05:58:56;26.80;99.90
41168;DHT22;26906;45.658;9.272;2023-07-13T06:01:22;26.70;99.90
41168;DHT22;26906;45.658;9.272;2023-07-13T06:03:49;26.60;99.90
41168;DHT22;26906;45.658;9.272;2023-07-13T06:06:15;26.50;99.90
41168;DHT22;26906;45.658;9.272;2023-07-13T06:08:41;26.70;99.90
41168;DHT22;26906;45.658;9.272;2023-07-13T06:11:12;26.80;99.90
41168;DHT22;26906;45.658;9.272;2023-07-13T06:13:39;26.70;99.90
41168;DHT22;26906;45.658;9.272;2023-07-13T06:16:05;27.00;99.90
41168;DHT22;26906;45.658;9.272;2023-07-13T06:18:33;27.30;99.90
41168;DHT22;26906;45.658;9.272;2023-07-13T06:20:58;27.40;99.90
41168;DHT22;26906;45.658;9.272;2023-07-13T06:23:25;27.30;99.90
41168;DHT22;26906;45.658;9.272;2023-07-13T06:25:50;27.40;99.90
41168;DHT22;26906;45.658;9.272;2023-07-13T06:28:16;27.40;99.90
41168;DHT22;26906;45.658;9.272;2023-07-13T06:30:42;27.60;99.90
41168;DHT22;26906;45.658;9.272;2023-07-13T06:33:07;27.80;99.90
41168;DHT22;26906;45.658;9.272;2023-07-13T06:35:33;27.90;99.90
41168;DHT22;26906;45.658;9.272;2023-07-13T06:37:59;28.10;99.90
41168;DHT22;26906;45.658;9.272;2023-07-13T06:40:25;28.30;99.90
41168;DHT22;26906;45.658;9.272;2023-07-13T06:42:50;28.50;99.90
41168;DHT22;26906;45.658;9.272;2023-07-13T06:45:16;28.60;99.90
41168;DHT22;26906;45.658;9.272;2023-07-13T06:47:45;28.80;99.90
41168;DHT22;26906;45.658;9.272;2023-07-13T06:50:10;28.70;99.90
41168;DHT22;26906;45.658;9.272;2023-07-13T06:52:36;28.80;99.90
41168;DHT22;26906;45.658;9.272;2023-07-13T06:55:02;28.60;99.90
41168;DHT22;26906;45.658;9.272;2023-07-13T06:57:28;28.50;99.90
41168;DHT22;26906;45.658;9.272;2023-07-13T06:59:53;28.70;99.90
41168;DHT22;26906;45.658;9.272;2023-07-13T07:02:19;28.90;99.90
41168;DHT22;26906;45.658;9.272;2023-07-13T07:04:45;28.70;99.90
41168;DHT22;26906;45.658;9.272;2023-07-13T07:07:10;28.90;99.90
41168;DHT22;26906;45.658;9.272;2023-07-13T07:09:36;29.20;99.90
41168;DHT22;26906;45.658;9.272;2023-07-13T07:12:02;29.30;99.90
41168;DHT22;26906;45.658;9.272;2023-07-13T07:14:28;29.00;99.90
41168;DHT22;26906;45.658;9.272;2023-07-13T07:16:54;28.80;99.90
41168;DHT22;26906;45.658;9.272;2023-07-13T07:19:20;28.70;99.90
41168;DHT22;26906;45.658;9.272;2023-07-13T07:21:46;28.70;99.90
41168;DHT22;26906;45.658;9.272;2023-07-13T07:24:11;28.70;99.90
41168;DHT22;26906;45.658;9.272;2023-07-13T07:26:37;28.70;99.90
41168;DHT22;26906;45.658;9.272;2023-07-13T07:29:03;28.80;99.90
41168;DHT22;26906;45.658;9.272;2023-07-13T07:31:28;28.80;99.90
41168;DHT22;26906;45.658;9.272;2023-07-13T07:33:54;28.90;99.90
41168;DHT22;26906;45.658;9.272;2023-07-13T07:36:20;28.80;99.90
41168;DHT22;26906;45.658;9.272;2023-07-13T07:38:45;28.70;99.90
41168;DHT22;26906;45.658;9.272;2023-07-13T07:41:13;28.70;99.90
41168;DHT22;26906;45.658;9.272;2023-07-13T07:43:38;28.60;99.90
41168;DHT22;26906;45.658;9.272;2023-07-13T07:46:04;28.40;99.90
41168;DHT22;26906;45.658;9.272;2023-07-13T07:48:30;28.20;99.90
41168;DHT22;26906;45.658;9.272;2023-07-13T07:50:56;28.30;99.90
41168;DHT22;26906;45.658;9.272;2023-07-13T07:53:22;28.20;99.90
41168;DHT22;26906;45.658;9.272;2023-07-13T07:55:48;27.90;99.90
41168;DHT22;26906;45.658;9.272;2023-07-13T07:58:13;28.00;99.90
41168;DHT22;26906;45.658;9.272;2023-07-13T08:00:39;28.00;99.90
41168;DHT22;26906;45.658;9.272;2023-07-13T08:03:12;27.90;99.90
41168;DHT22;26906;45.658;9.272;2023-07-13T08:05:37;28.00;99.90
41168;DHT22;26906;45.658;9.272;2023-07-13T08:08:03;27.90;99.90
41168;DHT22;26906;45.658;9.272;2023-07-13T08:10:29;28.00;99.90
41168;DHT22;26906;45.658;9.272;2023-07-13T08:12:55;28.20;99.90
41168;DHT22;26906;45.658;9.272;2023-07-13T08:15:20;28.20;99.90
41168;DHT22;26906;45.658;9.272;2023-07-13T08:17:48;28.40;99.90
41168;DHT22;26906;45.658;9.272;2023-07-13T08:20:14;28.40;99.90
41168;DHT22;26906;45.658;9.272;2023-07-13T08:22:40;28.60;99.90
41168;DHT22;26906;45.658;9.272;2023-07-13T08:25:06;28.90;99.90
41168;DHT22;26906;45.658;9.272;2023-07-13T08:27:33;28.80;99.90
41168;DHT22;26906;45.658;9.272;2023-07-13T08:29:58;29.20;99.90
41168;DHT22;26906;45.658;9.272;2023-07-13T08:32:24;29.60;99.90
41168;DHT22;26906;45.658;9.272;2023-07-13T08:34:50;29.40;99.90
41168;DHT22;26906;45.658;9.272;2023-07-13T08:37:17;29.50;99.90
41168;DHT22;26906;45.658;9.272;2023-07-13T08:39:42;29.90;99.90
41168;DHT22;26906;45.658;9.272;2023-07-13T08:47:23;30.30;99.90
41168;DHT22;26906;45.658;9.272;2023-07-13T08:49:49;30.40;99.90
41168;DHT22;26906;45.658;9.272;2023-07-13T08:52:17;30.40;99.90
41168;DHT22;26906;45.658;9.272;2023-07-13T08:54:51;30.40;99.90
41168;DHT22;26906;45.658;9.272;2023-07-13T08:57:32;30.70;99.90
41168;DHT22;26906;45.658;9.272;2023-07-13T08:59:58;30.80;99.90
41168;DHT22;26906;45.658;9.272;2023-07-13T09:02:46;30.90;99.90
41168;DHT22;26906;45.658;9.272;2023-07-13T09:05:33;31.10;99.90
41168;DHT22;26906;45.658;9.272;2023-07-13T09:11:25;31.10;99.90
41168;DHT22;26906;45.658;9.272;2023-07-13T09:16:45;31.40;99.90
41168;DHT22;26906;45.658;9.272;2023-07-13T09:19:19;31.40;99.90
41168;DHT22;26906;45.658;9.272;2023-07-13T09:21:45;31.10;99.90
41168;DHT22;26906;45.658;9.272;2023-07-13T09:24:39;30.90;99.90
41168;DHT22;26906;45.658;9.272;2023-07-13T09:27:45;31.10;99.90
41168;DHT22;26906;45.658;9.272;2023-07-13T09:30:23;30.90;99.90
41168;DHT22;26906;45.658;9.272;2023-07-13T09:32:52;31.10;99.90
41168;DHT22;26906;45.658;9.272;2023-07-13T09:35:25;31.20;99.90
41168;DHT22;26906;45.658;9.272;2023-07-13T09:37:58;31.30;99.90
41168;DHT22;26906;45.658;9.272;2023-07-13T09:40:30;31.60;99.90
41168;DHT22;26906;45.658;9.272;2023-07-13T09:43:01;32.00;99.90
41168;DHT22;26906;45.658;9.272;2023-07-13T09:45:32;31.90;99.90
41168;DHT22;26906;45.658;9.272;2023-07-13T09:48:07;31.90;99.90
41168;DHT22;26906;45.658;9.272;2023-07-13T09:50:36;32.30;99.90
41168;DHT22;26906;45.658;9.272;2023-07-13T09:53:03;32.30;99.90
41168;DHT22;26906;45.658;9.272;2023-07-13T09:55:34;32.40;99.90
41168;DHT22;26906;45.658;9.272;2023-07-13T09:58:14;32.30;99.90
41168;DHT22;26906;45.658;9.272;2023-07-13T10:00:42;32.50;99.90
41168;DHT22;26906;45.658;9.272;2023-07-13T10:03:22;32.40;99.90
41168;DHT22;26906;45.658;9.272;2023-07-13T10:05:51;32.10;99.90
41168;DHT22;26906;45.658;9.272;2023-07-13T10:08:30;31.90;99.90
41168;DHT22;26906;45.658;9.272;2023-07-13T10:11:08;31.80;99.90
41168;DHT22;26906;45.658;9.272;2023-07-13T10:13:37;32.40;99.90
41168;DHT22;26906;45.658;9.272;2023-07-13T10:16:07;32.80;99.90
41168;DHT22;26906;45.658;9.272;2023-07-13T10:18:53;32.80;99.90
41168;DHT22;26906;45.658;9.272;2023-07-13T10:21:22;33.30;99.90
41168;DHT22;26906;45.658;9.272;2023-07-13T10:23:55;32.40;99.90
41168;DHT22;26906;45.658;9.272;2023-07-13T10:26:31;32.00;99.90
41168;DHT22;26906;45.658;9.272;2023-07-13T10:29:01;32.40;99.90
41168;DHT22;26906;45.658;9.272;2023-07-13T10:31:27;32.90;99.90
41168;DHT22;26906;45.658;9.272;2023-07-13T10:33:53;33.00;99.90
41168;DHT22;26906;45.658;9.272;2023-07-13T10:38:51;32.10;99.90
41168;DHT22;26906;45.658;9.272;2023-07-13T10:41:21;31.60;99.90
41168;DHT22;26906;45.658;9.272;2023-07-13T10:43:51;31.90;99.90
41168;DHT22;26906;45.658;9.272;2023-07-13T10:46:21;32.20;99.90
41168;DHT22;26906;45.658;9.272;2023-07-13T10:48:52;32.50;99.90
41168;DHT22;26906;45.658;9.272;2023-07-13T10:51:20;32.70;99.90
41168;DHT22;26906;45.658;9.272;2023-07-13T10:53:47;32.60;99.90
41168;DHT22;26906;45.658;9.272;2023-07-13T10:56:27;32.80;99.90
41168;DHT22;26906;45.658;9.272;2023-07-13T11:01:57;32.10;99.90
41168;DHT22;26906;45.658;9.272;2023-07-13T11:04:25;32.30;99.90
41168;DHT22;26906;45.658;9.272;2023-07-13T11:06:57;32.80;99.90
41168;DHT22;26906;45.658;9.272;2023-07-13T11:09:39;33.20;99.90
41168;DHT22;26906;45.658;9.272;2023-07-13T11:22:51;32.80;99.90
41168;DHT22;26906;45.658;9.272;2023-07-13T11:30:46;32.40;99.90
41168;DHT22;26906;45.658;9.272;2023-07-13T11:36:04;33.50;99.90
41168;DHT22;26906;45.658;9.272;2023-07-13T11:38:37;33.60;99.90
41168;DHT22;26906;45.658;9.272;2023-07-13T11:41:34;33.30;99.90
41168;DHT22;26906;45.658;9.272;2023-07-13T11:46:36;33.30;99.90
41168;DHT22;26906;45.658;9.272;2023-07-13T11:49:05;33.70;99.90
41168;DHT22;26906;45.658;9.272;2023-07-13T11:51:34;34.10;99.90
41168;DHT22;26906;45.658;9.272;2023-07-13T11:54:06;34.20;99.90
41168;DHT22;26906;45.658;9.272;2023-07-13T11:56:38;34.10;99.90
41168;DHT22;26906;45.658;9.272;2023-07-13T11:59:07;33.80;99.90
41168;DHT22;26906;45.658;9.272;2023-07-13T12:01:36;34.10;99.90
41168;DHT22;26906;45.658;9.272;2023-07-13T12:04:04;33.50;99.90
41168;DHT22;26906;45.658;9.272;2023-07-13T12:06:35;33.50;99.90
41168;DHT22;26906;45.658;9.272;2023-07-13T12:09:12;33.60;99.90
41168;DHT22;26906;45.658;9.272;2023-07-13T12:11:40;33.50;99.90
41168;DHT22;26906;45.658;9.272;2023-07-13T12:14:12;33.50;99.90
41168;DHT22;26906;45.658;9.272;2023-07-13T12:16:37;33.40;99.90
41168;DHT22;26906;45.658;9.272;2023-07-13T12:19:03;33.10;99.90
41168;DHT22;26906;45.658;9.272;2023-07-13T12:21:41;32.90;99.90
41168;DHT22;26906;45.658;9.272;2023-07-13T12:24:15;32.80;99.90
41168;DHT22;26906;45.658;9.272;2023-07-13T12:26:41;32.70;99.90
41168;DHT22;26906;45.658;9.272;2023-07-13T12:29:11;32.50;99.90
41168;DHT22;26906;45.658;9.272;2023-07-13T12:31:44;32.40;99.90
41168;DHT22;26906;45.658;9.272;2023-07-13T12:34:17;32.30;99.90
41168;DHT22;26906;45.658;9.272;2023-07-13T12:39:22;32.30;99.90
41168;DHT22;26906;45.658;9.272;2023-07-13T12:41:50;32.20;99.90
41168;DHT22;26906;45.658;9.272;2023-07-13T12:44:21;32.10;99.90
41168;DHT22;26906;45.658;9.272;2023-07-13T12:46:57;32.00;99.90
41168;DHT22;26906;45.658;9.272;2023-07-13T12:49:26;32.00;99.90
41168;DHT22;26906;45.658;9.272;2023-07-13T12:51:57;32.00;99.90
41168;DHT22;26906;45.658;9.272;2023-07-13T12:54:24;31.90;99.90
41168;DHT22;26906;45.658;9.272;2023-07-13T12:56:52;31.90;99.90
41168;DHT22;26906;45.658;9.272;2023-07-13T12:59:21;31.80;99.90
41168;DHT22;26906;45.658;9.272;2023-07-13T13:01:48;31.80;99.90
41168;DHT22;26906;45.658;9.272;2023-07-13T13:04:17;32.10;99.90
41168;DHT22;26906;45.658;9.272;2023-07-13T13:06:47;32.30;99.90
41168;DHT22;26906;45.658;9.272;2023-07-13T13:09:14;32.50;99.90
41168;DHT22;26906;45.658;9.272;2023-07-13T13:11:41;32.80;99.90
41168;DHT22;26906;45.658;9.272;2023-07-13T13:14:07;32.50;99.90
41168;DHT22;26906;45.658;9.272;2023-07-13T13:16:47;32.30;99.90
41168;DHT22;26906;45.658;9.272;2023-07-13T13:19:25;32.10;99.90
41168;DHT22;26906;45.658;9.272;2023-07-13T13:21:52;32.10;99.90
41168;DHT22;26906;45.658;9.272;2023-07-13T13:24:21;32.10;99.90
41168;DHT22;26906;45.658;9.272;2023-07-13T13:26:50;31.90;99.90
41168;DHT22;26906;45.658;9.272;2023-07-13T13:29:21;31.80;99.90
41168;DHT22;26906;45.658;9.272;2023-07-13T13:31:50;31.80;99.90
41168;DHT22;26906;45.658;9.272;2023-07-13T13:34:17;32.40;99.90
41168;DHT22;26906;45.658;9.272;2023-07-13T13:36:44;32.80;99.90
41168;DHT22;26906;45.658;9.272;2023-07-13T13:41:43;32.30;99.90
41168;DHT22;26906;45.658;9.272;2023-07-13T13:44:10;32.30;99.90
41168;DHT22;26906;45.658;9.272;2023-07-13T13:46:35;32.60;99.90
41168;DHT22;26906;45.658;9.272;2023-07-13T13:49:01;32.90;99.90
41168;DHT22;26906;45.658;9.272;2023-07-13T13:51:28;33.10;99.90
41168;DHT22;26906;45.658;9.272;2023-07-13T13:53:55;33.40;99.90
41168;DHT22;26906;45.658;9.272;2023-07-13T13:56:21;33.40;99.90
41168;DHT22;26906;45.658;9.272;2023-07-13T13:58:47;33.60;99.90
41168;DHT22;26906;45.658;9.272;2023-07-13T14:01:18;33.60;99.90
41168;DHT22;26906;45.658;9.272;2023-07-13T14:03:44;33.50;99.90
41168;DHT22;26906;45.658;9.272;2023-07-13T14:06:15;33.50;99.90
41168;DHT22;26906;45.658;9.272;2023-07-13T14:08:41;33.30;99.90
41168;DHT22;26906;45.658;9.272;2023-07-13T14:11:12;33.20;99.90
41168;DHT22;26906;45.658;9.272;2023-07-13T14:13:43;33.10;99.90
41168;DHT22;26906;45.658;9.272;2023-07-13T14:16:17;33.50;99.90
41168;DHT22;26906;45.658;9.272;2023-07-13T14:18:45;33.80;99.90
41168;DHT22;26906;45.658;9.272;2023-07-13T14:21:16;33.90;99.90
41168;DHT22;26906;45.658;9.272;2023-07-13T14:23:44;34.10;99.90
41168;DHT22;26906;45.658;9.272;2023-07-13T14:26:15;34.20;99.90
41168;DHT22;26906;45.658;9.272;2023-07-13T14:28:44;34.30;99.90
41168;DHT22;26906;45.658;9.272;2023-07-13T14:31:15;34.60;99.90
41168;DHT22;26906;45.658;9.272;2023-07-13T14:33:40;34.40;99.90
41168;DHT22;26906;45.658;9.272;2023-07-13T14:36:27;34.60;99.90
41168;DHT22;26906;45.658;9.272;2023-07-13T14:38:53;34.60;99.90
41168;DHT22;26906;45.658;9.272;2023-07-13T14:41:19;34.50;99.90
41168;DHT22;26906;45.658;9.272;2023-07-13T14:43:46;34.30;99.90
41168;DHT22;26906;45.658;9.272;2023-07-13T14:46:32;34.20;99.90
41168;DHT22;26906;45.658;9.272;2023-07-13T14:49:27;34.00;99.90
41168;DHT22;26906;45.658;9.272;2023-07-13T14:51:55;33.80;99.90
41168;DHT22;26906;45.658;9.272;2023-07-13T14:54:23;33.70;99.90
41168;DHT22;26906;45.658;9.272;2023-07-13T14:56:49;33.60;99.90
41168;DHT22;26906;45.658;9.272;2023-07-13T14:59:16;33.50;99.90
41168;DHT22;26906;45.658;9.272;2023-07-13T15:01:44;33.60;99.90
41168;DHT22;26906;45.658;9.272;2023-07-13T15:04:11;33.60;99.90
41168;DHT22;26906;45.658;9.272;2023-07-13T15:06:57;33.60;99.90
41168;DHT22;26906;45.658;9.272;2023-07-13T15:09:24;33.60;99.90
41168;DHT22;26906;45.658;9.272;2023-07-13T15:11:53;33.40;99.90
41168;DHT22;26906;45.658;9.272;2023-07-13T15:14:19;33.50;99.90
41168;DHT22;26906;45.658;9.272;2023-07-13T15:16:47;33.70;99.90
41168;DHT22;26906;45.658;9.272;2023-07-13T15:19:15;33.50;99.90
41168;DHT22;26906;45.658;9.272;2023-07-13T15:21:42;33.50;99.90
41168;DHT22;26906;45.658;9.272;2023-07-13T15:24:11;33.50;99.90
41168;DHT22;26906;45.658;9.272;2023-07-13T15:26:38;33.50;99.90
41168;DHT22;26906;45.658;9.272;2023-07-13T15:29:05;33.20;99.90
41168;DHT22;26906;45.658;9.272;2023-07-13T15:31:32;33.30;99.90
41168;DHT22;26906;45.658;9.272;2023-07-13T15:33:59;33.50;99.90
41168;DHT22;26906;45.658;9.272;2023-07-13T15:36:26;33.80;99.90
41168;DHT22;26906;45.658;9.272;2023-07-13T15:38:54;33.70;99.90
41168;DHT22;26906;45.658;9.272;2023-07-13T15:41:23;33.50;99.90
41168;DHT22;26906;45.658;9.272;2023-07-13T15:43:51;33.60;99.90
41168;DHT22;26906;45.658;9.272;2023-07-13T15:46:19;33.60;99.90
41168;DHT22;26906;45.658;9.272;2023-07-13T15:48:47;33.60;99.90
41168;DHT22;26906;45.658;9.272;2023-07-13T15:51:28;33.70;99.90
41168;DHT22;26906;45.658;9.272;2023-07-13T15:53:57;33.70;99.90
41168;DHT22;26906;45.658;9.272;2023-07-13T15:56:28;33.60;99.90
41168;DHT22;26906;45.658;9.272;2023-07-13T15:58:55;33.60;99.90
41168;DHT22;26906;45.658;9.272;2023-07-13T16:01:23;33.50;99.90
41168;DHT22;26906;45.658;9.272;2023-07-13T16:03:49;33.70;99.90
41168;DHT22;26906;45.658;9.272;2023-07-13T16:06:36;33.70;99.90
41168;DHT22;26906;45.658;9.272;2023-07-13T16:09:05;33.80;99.90
41168;DHT22;26906;45.658;9.272;2023-07-13T16:25:02;33.10;99.90
41168;DHT22;26906;45.658;9.272;2023-07-13T16:27:34;33.10;99.90
41168;DHT22;26906;45.658;9.272;2023-07-13T16:30:00;33.20;99.90
41168;DHT22;26906;45.658;9.272;2023-07-13T16:32:26;33.20;99.90
41168;DHT22;26906;45.658;9.272;2023-07-13T16:34:51;33.20;99.90
41168;DHT22;26906;45.658;9.272;2023-07-13T16:37:20;33.20;99.90
41168;DHT22;26906;45.658;9.272;2023-07-13T16:39:50;33.20;99.90
41168;DHT22;26906;45.658;9.272;2023-07-13T16:42:18;33.30;99.90
41168;DHT22;26906;45.658;9.272;2023-07-13T16:44:44;33.20;99.90
41168;DHT22;26906;45.658;9.272;2023-07-13T16:47:14;33.00;99.90
41168;DHT22;26906;45.658;9.272;2023-07-13T16:49:40;33.10;99.90
41168;DHT22;26906;45.658;9.272;2023-07-13T16:52:06;33.10;99.90
41168;DHT22;26906;45.658;9.272;2023-07-13T16:54:37;33.20;99.90
41168;DHT22;26906;45.658;9.272;2023-07-13T16:57:13;33.00;99.90
41168;DHT22;26906;45.658;9.272;2023-07-13T16:59:40;33.00;99.90
41168;DHT22;26906;45.658;9.272;2023-07-13T17:04:52;33.00;99.90
41168;DHT22;26906;45.658;9.272;2023-07-13T17:07:19;32.90;99.90
41168;DHT22;26906;45.658;9.272;2023-07-13T17:09:49;32.90;99.90
41168;DHT22;26906;45.658;9.272;2023-07-13T17:12:15;32.90;99.90
41168;DHT22;26906;45.658;9.272;2023-07-13T17:14:41;32.70;99.90
41168;DHT22;26906;45.658;9.272;2023-07-13T17:17:33;32.60;99.90
41168;DHT22;26906;45.658;9.272;2023-07-13T17:20:02;32.40;99.90
41168;DHT22;26906;45.658;9.272;2023-07-13T17:22:28;32.40;99.90
41168;DHT22;26906;45.658;9.272;2023-07-13T17:24:54;32.30;99.90
41168;DHT22;26906;45.658;9.272;2023-07-13T17:27:20;32.30;99.90
41168;DHT22;26906;45.658;9.272;2023-07-13T17:29:46;31.90;99.90
41168;DHT22;26906;45.658;9.272;2023-07-13T17:32:19;31.70;99.90
41168;DHT22;26906;45.658;9.272;2023-07-13T17:34:45;31.60;99.90
41168;DHT22;26906;45.658;9.272;2023-07-13T17:37:16;31.20;99.90
41168;DHT22;26906;45.658;9.272;2023-07-13T17:39:42;30.90;99.90
41168;DHT22;26906;45.658;9.272;2023-07-13T17:42:10;30.90;99.90
41168;DHT22;26906;45.658;9.272;2023-07-13T17:44:38;30.90;99.90
41168;DHT22;26906;45.658;9.272;2023-07-13T17:47:05;30.70;99.90
41168;DHT22;26906;45.658;9.272;2023-07-13T17:49:31;30.50;99.90
41168;DHT22;26906;45.658;9.272;2023-07-13T17:51:59;30.20;99.90
41168;DHT22;26906;45.658;9.272;2023-07-13T17:54:26;30.30;99.90
41168;DHT22;26906;45.658;9.272;2023-07-13T17:56:53;30.40;99.90
41168;DHT22;26906;45.658;9.272;2023-07-13T17:59:19;30.30;99.90
41168;DHT22;26906;45.658;9.272;2023-07-13T18:01:46;30.50;99.90
41168;DHT22;26906;45.658;9.272;2023-07-13T18:04:15;30.40;99.90
41168;DHT22;26906;45.658;9.272;2023-07-13T18:06:44;30.30;99.90
41168;DHT22;26906;45.658;9.272;2023-07-13T18:09:22;30.10;99.90
41168;DHT22;26906;45.658;9.272;2023-07-13T18:11:48;30.00;99.90
41168;DHT22;26906;45.658;9.272;2023-07-13T18:14:14;29.90;99.90
41168;DHT22;26906;45.658;9.272;2023-07-13T18:16:42;29.80;99.90
41168;DHT22;26906;45.658;9.272;2023-07-13T18:19:32;29.70;99.90
41168;DHT22;26906;45.658;9.272;2023-07-13T18:21:59;29.50;99.90
41168;DHT22;26906;45.658;9.272;2023-07-13T18:24:24;29.10;99.90
41168;DHT22;26906;45.658;9.272;2023-07-13T18:26:51;29.00;99.90
41168;DHT22;26906;45.658;9.272;2023-07-13T18:29:16;28.80;99.90
41168;DHT22;26906;45.658;9.272;2023-07-13T18:31:43;28.70;99.90
41168;DHT22;26906;45.658;9.272;2023-07-13T18:34:11;28.70;99.90
41168;DHT22;26906;45.658;9.272;2023-07-13T18:36:36;28.60;99.90
41168;DHT22;26906;45.658;9.272;2023-07-13T18:39:04;28.70;99.90
41168;DHT22;26906;45.658;9.272;2023-07-13T18:41:31;28.70;99.90
41168;DHT22;26906;45.658;9.272;2023-07-13T18:43:57;28.60;99.90
41168;DHT22;26906;45.658;9.272;2023-07-13T18:46:28;28.60;99.90
41168;DHT22;26906;45.658;9.272;2023-07-13T18:48:57;28.60;99.90
41168;DHT22;26906;45.658;9.272;2023-07-13T18:51:23;28.20;99.90
41168;DHT22;26906;45.658;9.272;2023-07-13T18:53:50;28.10;99.90
41168;DHT22;26906;45.658;9.272;2023-07-13T18:56:15;28.30;99.90
41168;DHT22;26906;45.658;9.272;2023-07-13T18:58:41;28.50;99.90
41168;DHT22;26906;45.658;9.272;2023-07-13T19:01:23;28.40;99.90
41168;DHT22;26906;45.658;9.272;2023-07-13T19:03:51;28.30;99.90
41168;DHT22;26906;45.658;9.272;2023-07-13T19:06:17;28.40;99.90
41168;DHT22;26906;45.658;9.272;2023-07-13T19:08:44;28.50;99.90
41168;DHT22;26906;45.658;9.272;2023-07-13T19:11:20;28.50;99.90
41168;DHT22;26906;45.658;9.272;2023-07-13T19:13:47;28.20;99.90
41168;DHT22;26906;45.658;9.272;2023-07-13T19:16:16;28.20;99.90
41168;DHT22;26906;45.658;9.272;2023-07-13T19:18:42;28.10;99.90
41168;DHT22;26906;45.658;9.272;2023-07-13T19:21:33;28.20;99.90
41168;DHT22;26906;45.658;9.272;2023-07-13T19:24:00;28.30;99.90
41168;DHT22;26906;45.658;9.272;2023-07-13T19:26:30;28.40;99.90
41168;DHT22;26906;45.658;9.272;2023-07-13T19:28:57;28.40;99.90
41168;DHT22;26906;45.658;9.272;2023-07-13T19:31:30;28.50;99.90
41168;DHT22;26906;45.658;9.272;2023-07-13T19:34:10;28.40;99.90
41168;DHT22;26906;45.658;9.272;2023-07-13T19:36:39;28.30;99.90
41168;DHT22;26906;45.658;9.272;2023-07-13T19:39:08;28.10;99.90
41168;DHT22;26906;45.658;9.272;2023-07-13T19:41:41;27.80;99.90
41168;DHT22;26906;45.658;9.272;2023-07-13T19:44:12;27.70;99.90
41168;DHT22;26906;45.658;9.272;2023-07-13T19:46:38;27.80;99.90
41168;DHT22;26906;45.658;9.272;2023-07-13T19:49:05;27.90;99.90
41168;DHT22;26906;45.658;9.272;2023-07-13T19:51:32;28.00;99.90
41168;DHT22;26906;45.658;9.272;2023-07-13T19:54:18;28.00;99.90
41168;DHT22;26906;45.658;9.272;2023-07-13T19:56:44;28.00;99.90
41168;DHT22;26906;45.658;9.272;2023-07-13T20:01:48;27.90;99.90
41168;DHT22;26906;45.658;9.272;2023-07-13T20:04:14;28.00;99.90
41168;DHT22;26906;45.658;9.272;2023-07-13T20:06:40;27.90;99.90
41168;DHT22;26906;45.658;9.272;2023-07-13T20:09:17;27.90;99.90
41168;DHT22;26906;45.658;9.272;2023-07-13T20:11:44;28.00;99.90
41168;DHT22;26906;45.658;9.272;2023-07-13T20:14:25;28.00;99.90
41168;DHT22;26906;45.658;9.272;2023-07-13T20:17:00;28.00;99.90
41168;DHT22;26906;45.658;9.272;2023-07-13T20:19:32;28.00;99.90
41168;DHT22;26906;45.658;9.272;2023-07-13T20:21:59;28.00;99.90
41168;DHT22;26906;45.658;9.272;2023-07-13T20:24:24;28.00;99.90
